createdAt,value
2018-02-22T00:01:01.112Z,-0.69
2018-02-22T00:02:03.587Z,-0.80
2018-02-22T00:03:06.094Z,-0.82
2018-02-22T00:04:08.582Z,-0.93
2018-02-22T00:05:11.060Z,-0.88
2018-02-22T00:06:13.550Z,-0.93
2018-02-22T00:07:16.036Z,-0.99
2018-02-22T00:08:18.511Z,-1.03
2018-02-22T00:09:21.006Z,-0.92
2018-02-22T00:10:23.490Z,-1.00
2018-02-22T00:11:25.998Z,-0.93
2018-02-22T00:12:28.485Z,-1.01
2018-02-22T00:13:30.974Z,-1.10
2018-02-22T00:14:33.472Z,-0.92
2018-02-22T00:15:35.961Z,-0.99
2018-02-22T00:16:38.475Z,-1.05
2018-02-22T00:17:40.981Z,-1.02
2018-02-22T00:18:43.455Z,-1.10
2018-02-22T00:19:45.936Z,-1.00
2018-02-22T00:20:48.411Z,-0.88
2018-02-22T00:21:50.929Z,-0.94
2018-02-22T00:22:53.421Z,-1.05
2018-02-22T00:23:55.905Z,-1.09
2018-02-22T00:24:58.459Z,-1.11
2018-02-22T00:26:00.953Z,-1.15
2018-02-22T00:27:03.464Z,-1.14
2018-02-22T00:28:05.948Z,-1.24
2018-02-22T00:29:08.461Z,-1.37
2018-02-22T00:30:10.946Z,-1.26
2018-02-22T00:31:13.515Z,-1.36
2018-02-22T00:32:15.993Z,-1.24
2018-02-22T00:33:18.463Z,-1.31
2018-02-22T00:34:20.953Z,-1.44
2018-02-22T00:35:23.432Z,-1.50
2018-02-22T00:36:25.951Z,-1.45
2018-02-22T00:37:28.465Z,-1.57
2018-02-22T00:38:31.684Z,-1.67
2018-02-22T00:39:34.163Z,-1.58
2018-02-22T00:40:36.647Z,-1.57
2018-02-22T00:41:39.143Z,-1.33
2018-02-22T00:42:41.656Z,-1.15
2018-02-22T00:43:44.149Z,-1.02
2018-02-22T00:44:46.628Z,-1.08
2018-02-22T00:45:49.106Z,-1.17
2018-02-22T00:46:51.594Z,-1.26
2018-02-22T00:47:54.079Z,-1.25
2018-02-22T00:48:56.566Z,-1.36
2018-02-22T00:49:59.043Z,-1.38
2018-02-22T00:51:01.534Z,-1.57
2018-02-22T00:52:04.006Z,-1.74
2018-02-22T00:53:06.507Z,-1.91
2018-02-22T00:54:09.007Z,-2.04
2018-02-22T00:55:11.497Z,-2.06
2018-02-22T00:56:13.993Z,-2.08
2018-02-22T00:57:16.494Z,-2.10
2018-02-22T00:58:19.011Z,-1.95
2018-02-22T00:59:21.484Z,-1.65
2018-02-22T01:00:23.981Z,-1.67
2018-02-22T01:01:26.458Z,-1.82
2018-02-22T01:02:28.935Z,-1.90
2018-02-22T01:03:31.421Z,-1.90
2018-02-22T01:04:33.922Z,-2.02
2018-02-22T01:05:36.413Z,-2.07
2018-02-22T01:06:38.908Z,-2.12
2018-02-22T01:07:41.405Z,-2.15
2018-02-22T01:08:43.896Z,-2.19
2018-02-22T01:09:46.387Z,-1.99
2018-02-22T01:10:48.868Z,-1.83
2018-02-22T01:11:51.791Z,-1.97
2018-02-22T01:12:54.271Z,-2.01
2018-02-22T01:13:56.759Z,-1.81
2018-02-22T01:14:59.245Z,-1.66
2018-02-22T01:16:01.737Z,-1.83
2018-02-22T01:17:04.220Z,-1.94
2018-02-22T01:18:06.703Z,-2.04
2018-02-22T01:19:09.201Z,-1.86
2018-02-22T01:20:11.698Z,-1.91
2018-02-22T01:21:14.173Z,-1.67
2018-02-22T01:22:16.694Z,-1.53
2018-02-22T01:23:19.167Z,-1.63
2018-02-22T01:24:21.665Z,-1.57
2018-02-22T01:25:24.154Z,-1.65
2018-02-22T01:26:26.652Z,-1.71
2018-02-22T01:27:29.141Z,-1.76
2018-02-22T01:28:31.619Z,-1.86
2018-02-22T01:29:34.113Z,-1.94
2018-02-22T01:30:36.601Z,-2.07
2018-02-22T01:31:39.083Z,-1.82
2018-02-22T01:32:41.585Z,-1.73
2018-02-22T01:33:44.081Z,-1.74
2018-02-22T01:34:46.586Z,-1.84
2018-02-22T01:35:49.067Z,-1.72
2018-02-22T01:36:51.556Z,-1.84
2018-02-22T01:37:54.035Z,-2.02
2018-02-22T01:38:56.507Z,-2.08
2018-02-22T01:39:59.000Z,-1.89
2018-02-22T01:41:01.485Z,-1.85
2018-02-22T01:42:03.963Z,-1.89
2018-02-22T01:43:06.457Z,-1.64
2018-02-22T01:44:08.962Z,-1.77
2018-02-22T01:45:11.443Z,-1.93
2018-02-22T01:46:13.943Z,-2.08
2018-02-22T01:47:16.432Z,-1.94
2018-02-22T01:48:18.903Z,-1.97
2018-02-22T01:49:21.401Z,-1.73
2018-02-22T01:50:23.894Z,-1.74
2018-02-22T01:51:26.381Z,-1.95
2018-02-22T01:52:28.870Z,-1.96
2018-02-22T01:53:31.356Z,-1.81
2018-02-22T01:54:33.837Z,-1.95
2018-02-22T01:55:36.329Z,-2.02
2018-02-22T01:56:38.807Z,-1.84
2018-02-22T01:57:41.297Z,-2.01
2018-02-22T01:58:43.786Z,-1.64
2018-02-22T01:59:46.263Z,-1.70
2018-02-22T02:00:48.762Z,-1.57
2018-02-22T02:01:51.253Z,-1.65
2018-02-22T02:02:53.746Z,-1.56
2018-02-22T02:03:56.234Z,-1.66
2018-02-22T02:04:58.732Z,-1.74
2018-02-22T02:06:01.206Z,-1.59
2018-02-22T02:07:03.703Z,-1.65
2018-02-22T02:08:06.187Z,-1.56
2018-02-22T02:09:08.676Z,-1.62
2018-02-22T02:10:11.161Z,-1.70
2018-02-22T02:11:13.643Z,-1.68
2018-02-22T02:12:16.129Z,-1.50
2018-02-22T02:13:18.607Z,-1.50
2018-02-22T02:14:21.097Z,-1.76
2018-02-22T02:15:23.584Z,-1.75
2018-02-22T02:16:26.080Z,-1.76
2018-02-22T02:17:28.569Z,-1.70
2018-02-22T02:18:31.895Z,-1.67
2018-02-22T02:19:34.385Z,-1.70
2018-02-22T02:20:36.860Z,-1.76
2018-02-22T02:21:39.339Z,-1.89
2018-02-22T02:22:41.825Z,-1.97
2018-02-22T02:23:44.317Z,-1.93
2018-02-22T02:24:46.790Z,-1.85
2018-02-22T02:25:49.279Z,-1.88
2018-02-22T02:26:51.751Z,-1.74
2018-02-22T02:27:59.859Z,-1.67
2018-02-22T02:29:02.345Z,-1.90
2018-02-22T02:30:04.833Z,-1.86
2018-02-22T02:31:07.303Z,-1.98
2018-02-22T02:32:09.792Z,-1.97
2018-02-22T02:33:12.281Z,-1.73
2018-02-22T02:34:14.762Z,-1.88
2018-02-22T02:35:17.238Z,-1.76
2018-02-22T02:36:19.725Z,-1.88
2018-02-22T02:37:22.221Z,-1.89
2018-02-22T02:38:24.709Z,-1.71
2018-02-22T02:39:27.207Z,-1.62
2018-02-22T02:40:29.707Z,-1.62
2018-02-22T02:41:32.206Z,-1.70
2018-02-22T02:42:34.676Z,-1.73
2018-02-22T02:43:37.166Z,-1.80
2018-02-22T02:44:39.651Z,-1.69
2018-02-22T02:45:42.150Z,-1.64
2018-02-22T02:46:44.623Z,-1.65
2018-02-22T02:47:47.120Z,-1.55
2018-02-22T02:48:49.598Z,-1.57
2018-02-22T02:49:52.068Z,-1.58
2018-02-22T02:50:54.567Z,-1.61
2018-02-22T02:51:57.072Z,-1.66
2018-02-22T02:52:59.569Z,-1.66
2018-02-22T02:54:02.039Z,-1.58
2018-02-22T02:55:04.520Z,-1.55
2018-02-22T02:56:07.020Z,-1.54
2018-02-22T02:57:09.491Z,-1.56
2018-02-22T02:58:11.978Z,-1.62
2018-02-22T02:59:14.472Z,-1.67
2018-02-22T03:00:16.949Z,-1.61
2018-02-22T03:01:19.427Z,-1.62
2018-02-22T03:02:21.918Z,-1.68
2018-02-22T03:03:24.404Z,-1.65
2018-02-22T03:04:26.885Z,-1.64
2018-02-22T03:05:29.379Z,-1.73
2018-02-22T03:06:31.850Z,-1.71
2018-02-22T03:07:34.345Z,-1.67
2018-02-22T03:08:36.837Z,-1.73
2018-02-22T03:09:39.319Z,-1.67
2018-02-22T03:10:41.804Z,-1.70
2018-02-22T03:11:44.279Z,-1.79
2018-02-22T03:12:46.770Z,-1.79
2018-02-22T03:13:49.249Z,-1.75
2018-02-22T03:14:51.741Z,-2.03
2018-02-22T03:15:54.237Z,-1.83
2018-02-22T03:16:56.715Z,-2.03
2018-02-22T03:17:59.206Z,-2.03
2018-02-22T03:19:01.693Z,-2.00
2018-02-22T03:20:04.171Z,-1.89
2018-02-22T03:21:06.669Z,-1.97
2018-02-22T03:22:09.168Z,-2.13
2018-02-22T03:23:11.651Z,-2.15
2018-02-22T03:24:14.128Z,-2.23
2018-02-22T03:25:16.621Z,-2.08
2018-02-22T03:26:19.099Z,-2.11
2018-02-22T03:27:21.600Z,-2.09
2018-02-22T03:28:24.094Z,-2.09
2018-02-22T03:29:26.580Z,-2.22
2018-02-22T03:30:29.078Z,-1.93
2018-02-22T03:31:31.552Z,-2.00
2018-02-22T03:32:34.049Z,-1.87
2018-02-22T03:33:36.541Z,-1.79
2018-02-22T03:34:39.066Z,-1.77
2018-02-22T03:35:41.559Z,-1.98
2018-02-22T03:36:44.040Z,-2.14
2018-02-22T03:37:46.521Z,-2.29
2018-02-22T03:38:48.999Z,-2.32
2018-02-22T03:39:51.477Z,-2.15
2018-02-22T03:40:53.966Z,-1.97
2018-02-22T03:41:56.528Z,-2.00
2018-02-22T03:42:59.004Z,-1.95
2018-02-22T03:44:01.476Z,-1.95
2018-02-22T03:45:03.967Z,-1.75
2018-02-22T03:46:06.507Z,-1.73
2018-02-22T03:47:08.970Z,-1.72
2018-02-22T03:48:11.443Z,-1.75
2018-02-22T03:49:13.945Z,-1.71
2018-02-22T03:50:16.433Z,-1.85
2018-02-22T03:51:18.910Z,-1.84
2018-02-22T03:52:21.397Z,-1.78
2018-02-22T03:53:23.897Z,-1.73
2018-02-22T03:54:26.412Z,-1.69
2018-02-22T03:55:28.891Z,-1.78
2018-02-22T03:56:31.377Z,-1.85
2018-02-22T03:57:33.870Z,-1.88
2018-02-22T03:58:36.371Z,-1.99
2018-02-22T03:59:38.863Z,-2.17
2018-02-22T04:00:41.349Z,-2.20
2018-02-22T04:01:43.841Z,-2.03
2018-02-22T04:02:46.334Z,-2.14
2018-02-22T04:03:48.823Z,-2.30
2018-02-22T04:04:51.299Z,-2.42
2018-02-22T04:05:53.809Z,-2.51
2018-02-22T04:06:56.302Z,-2.38
2018-02-22T04:07:58.775Z,-2.54
2018-02-22T04:09:01.251Z,-2.49
2018-02-22T04:10:03.727Z,-2.55
2018-02-22T04:11:06.203Z,-2.70
2018-02-22T04:12:08.721Z,-2.73
2018-02-22T04:13:11.209Z,-2.81
2018-02-22T04:14:13.687Z,-2.88
2018-02-22T04:15:16.172Z,-2.93
2018-02-22T04:16:18.651Z,-2.40
2018-02-22T04:17:21.136Z,-2.35
2018-02-22T04:18:23.613Z,-2.45
2018-02-22T04:19:26.105Z,-2.31
2018-02-22T04:20:29.499Z,-2.16
2018-02-22T04:21:31.972Z,-2.21
2018-02-22T04:22:34.446Z,-2.19
2018-02-22T04:23:36.943Z,-2.16
2018-02-22T04:24:39.425Z,-2.15
2018-02-22T04:25:41.921Z,-2.08
2018-02-22T04:26:44.395Z,-2.29
2018-02-22T04:27:46.885Z,-2.17
2018-02-22T04:28:49.375Z,-2.12
2018-02-22T04:29:51.857Z,-2.27
2018-02-22T04:30:54.426Z,-2.11
2018-02-22T04:31:56.921Z,-2.28
2018-02-22T04:32:59.395Z,-2.21
2018-02-22T04:34:01.874Z,-2.30
2018-02-22T04:35:04.369Z,-2.19
2018-02-22T04:36:06.842Z,-2.19
2018-02-22T04:37:09.338Z,-2.27
2018-02-22T04:38:11.829Z,-2.45
2018-02-22T04:39:14.303Z,-2.32
2018-02-22T04:40:16.797Z,-2.58
2018-02-22T04:41:19.271Z,-2.70
2018-02-22T04:42:21.761Z,-2.63
2018-02-22T04:43:24.247Z,-2.60
2018-02-22T04:44:26.732Z,-2.42
2018-02-22T04:45:29.207Z,-2.41
2018-02-22T04:46:31.709Z,-2.30
2018-02-22T04:47:34.210Z,-2.15
2018-02-22T04:48:36.706Z,-2.03
2018-02-22T04:49:39.201Z,-2.04
2018-02-22T04:50:41.705Z,-2.09
2018-02-22T04:51:44.179Z,-2.06
2018-02-22T04:52:46.657Z,-2.05
2018-02-22T04:53:49.126Z,-2.11
2018-02-22T04:54:51.614Z,-2.10
2018-02-22T04:55:54.104Z,-2.24
2018-02-22T04:56:56.596Z,-2.28
2018-02-22T04:57:59.081Z,-2.07
2018-02-22T04:59:01.573Z,-2.09
2018-02-22T05:00:04.062Z,-2.10
2018-02-22T05:01:06.553Z,-2.04
2018-02-22T05:02:09.033Z,-2.06
2018-02-22T05:03:11.521Z,-2.12
2018-02-22T05:04:14.019Z,-2.09
2018-02-22T05:05:16.510Z,-2.10
2018-02-22T05:06:19.008Z,-2.02
2018-02-22T05:07:21.497Z,-2.04
2018-02-22T05:08:23.991Z,-2.08
2018-02-22T05:09:26.477Z,-2.02
2018-02-22T05:10:28.949Z,-2.06
2018-02-22T05:11:31.445Z,-2.02
2018-02-22T05:12:33.953Z,-2.13
2018-02-22T05:13:36.446Z,-2.19
2018-02-22T05:14:38.973Z,-2.17
2018-02-22T05:15:41.494Z,-2.13
2018-02-22T05:16:43.981Z,-2.27
2018-02-22T05:17:46.454Z,-2.32
2018-02-22T05:18:49.791Z,-2.32
2018-02-22T05:19:52.297Z,-2.22
2018-02-22T05:20:54.780Z,-2.26
2018-02-22T05:21:57.252Z,-2.38
2018-02-22T05:22:59.745Z,-2.35
2018-02-22T05:24:02.235Z,-2.34
2018-02-22T05:25:04.722Z,-2.18
2018-02-22T05:26:07.209Z,-2.30
2018-02-22T05:27:09.716Z,-2.40
2018-02-22T05:28:12.213Z,-2.38
2018-02-22T05:29:14.701Z,-2.30
2018-02-22T05:30:17.204Z,-2.28
2018-02-22T05:31:19.676Z,-2.24
2018-02-22T05:32:22.165Z,-2.19
2018-02-22T05:33:24.711Z,-2.12
2018-02-22T05:34:27.183Z,-2.24
2018-02-22T05:35:29.670Z,-2.38
2018-02-22T05:36:32.148Z,-2.33
2018-02-22T05:37:34.627Z,-2.42
2018-02-22T05:38:37.112Z,-2.38
2018-02-22T05:39:39.631Z,-2.40
2018-02-22T05:40:42.103Z,-2.29
2018-02-22T05:41:44.597Z,-2.27
2018-02-22T05:42:47.088Z,-2.17
2018-02-22T05:43:49.563Z,-2.17
2018-02-22T05:44:52.076Z,-2.33
2018-02-22T05:45:54.552Z,-2.36
2018-02-22T05:46:57.040Z,-2.34
2018-02-22T05:47:59.571Z,-2.42
2018-02-22T05:49:02.047Z,-2.49
2018-02-22T05:50:04.538Z,-2.46
2018-02-22T05:51:07.014Z,-2.32
2018-02-22T05:52:09.509Z,-2.25
2018-02-22T05:53:12.005Z,-2.38
2018-02-22T05:54:14.497Z,-2.45
2018-02-22T05:55:17.106Z,-2.46
2018-02-22T05:56:19.578Z,-2.61
2018-02-22T05:57:22.103Z,-2.61
2018-02-22T05:58:24.598Z,-2.60
2018-02-22T05:59:27.076Z,-2.52
2018-02-22T06:00:29.575Z,-2.54
2018-02-22T06:01:32.067Z,-2.59
2018-02-22T06:02:34.571Z,-2.52
2018-02-22T06:03:37.277Z,-2.45
2018-02-22T06:04:39.796Z,-2.17
2018-02-22T06:05:42.286Z,-2.02
2018-02-22T06:06:44.770Z,-1.86
2018-02-22T06:07:47.312Z,-1.58
2018-02-22T06:08:49.743Z,-1.41
2018-02-22T06:09:52.310Z,-1.44
2018-02-22T06:10:54.871Z,-1.33
2018-02-22T06:11:57.346Z,-1.32
2018-02-22T06:12:59.869Z,-1.48
2018-02-22T06:14:02.376Z,-1.39
2018-02-22T06:15:04.849Z,-1.48
2018-02-22T06:16:07.366Z,-1.39
2018-02-22T06:17:09.929Z,-1.39
2018-02-22T06:18:12.414Z,-1.49
2018-02-22T06:19:14.887Z,-1.64
2018-02-22T06:20:17.377Z,-1.61
2018-02-22T06:21:19.864Z,-1.65
2018-02-22T06:22:22.361Z,-1.75
2018-02-22T06:23:24.835Z,-1.49
2018-02-22T06:24:27.336Z,-1.52
2018-02-22T06:25:29.835Z,-1.49
2018-02-22T06:26:32.352Z,-1.48
2018-02-22T06:27:34.827Z,-1.45
2018-02-22T06:28:37.304Z,-1.35
2018-02-22T06:29:39.826Z,-1.46
2018-02-22T06:30:42.313Z,-1.44
2018-02-22T06:31:44.848Z,-1.33
2018-02-22T06:32:47.319Z,-1.52
2018-02-22T06:33:49.788Z,-1.53
2018-02-22T06:34:52.274Z,-1.43
2018-02-22T06:35:54.982Z,-1.45
2018-02-22T06:36:57.479Z,-1.44
2018-02-22T06:37:59.953Z,-1.44
2018-02-22T06:39:02.449Z,-1.58
2018-02-22T06:40:05.010Z,-1.58
2018-02-22T06:41:07.484Z,-1.74
2018-02-22T06:42:09.977Z,-1.50
2018-02-22T06:43:12.469Z,-1.51
2018-02-22T06:44:15.080Z,-1.60
2018-02-22T06:45:17.551Z,-1.48
2018-02-22T06:46:20.046Z,-1.37
2018-02-22T06:47:22.545Z,-1.37
2018-02-22T06:48:25.023Z,-1.35
2018-02-22T06:49:27.491Z,-1.53
2018-02-22T06:50:29.967Z,-1.55
2018-02-22T06:51:32.443Z,-1.48
2018-02-22T06:52:34.919Z,-1.40
2018-02-22T06:53:37.392Z,-1.64
2018-02-22T06:54:39.918Z,-1.57
2018-02-22T06:55:42.397Z,-1.74
2018-02-22T06:56:44.882Z,-1.61
2018-02-22T06:57:47.390Z,-1.40
2018-02-22T06:58:49.868Z,-1.18
2018-02-22T06:59:52.357Z,-1.33
2018-02-22T07:00:54.843Z,-1.30
2018-02-22T07:01:57.428Z,-1.21
2018-02-22T07:02:59.988Z,-1.11
2018-02-22T07:04:02.477Z,-1.15
2018-02-22T07:05:04.969Z,-1.11
2018-02-22T07:06:07.456Z,-0.92
2018-02-22T07:07:09.932Z,-1.03
2018-02-22T07:08:12.412Z,-1.01
2018-02-22T07:09:14.888Z,-1.11
2018-02-22T07:10:17.390Z,-1.11
2018-02-22T07:11:19.868Z,-1.02
2018-02-22T07:12:22.357Z,-1.19
2018-02-22T07:13:24.895Z,-1.10
2018-02-22T07:14:27.383Z,-1.01
2018-02-22T07:15:29.856Z,-1.05
2018-02-22T07:16:32.331Z,-1.08
2018-02-22T07:17:34.807Z,-1.10
2018-02-22T07:18:37.280Z,-1.03
2018-02-22T07:19:39.760Z,-1.17
2018-02-22T07:20:42.244Z,-1.08
2018-02-22T07:21:44.715Z,-1.18
2018-02-22T07:22:47.192Z,-1.15
2018-02-22T07:23:49.685Z,-0.90
2018-02-22T07:24:52.155Z,-0.81
2018-02-22T07:25:54.627Z,-0.83
2018-02-22T07:26:57.114Z,-0.86
2018-02-22T07:27:59.602Z,-0.86
2018-02-22T07:29:02.093Z,-0.83
2018-02-22T07:30:04.612Z,-0.78
2018-02-22T07:31:07.102Z,-0.77
2018-02-22T07:32:09.578Z,-0.78
2018-02-22T07:33:12.047Z,-0.68
2018-02-22T07:34:15.404Z,-0.72
2018-02-22T07:35:17.851Z,-0.72
2018-02-22T07:36:20.351Z,-0.79
2018-02-22T07:37:22.845Z,-0.62
2018-02-22T07:38:25.325Z,-0.62
2018-02-22T07:39:27.814Z,-0.61
2018-02-22T07:40:30.291Z,-0.54
2018-02-22T07:41:32.767Z,-0.57
2018-02-22T07:42:35.253Z,-0.59
2018-02-22T07:43:37.733Z,-0.43
2018-02-22T07:44:40.215Z,-0.45
2018-02-22T07:45:42.721Z,-0.32
2018-02-22T07:46:45.205Z,-0.30
2018-02-22T07:47:47.693Z,-0.29
2018-02-22T07:48:50.178Z,-0.06
2018-02-22T07:49:52.657Z,0.14
2018-02-22T07:50:55.141Z,0.56
2018-02-22T07:51:57.607Z,1.11
2018-02-22T07:53:00.081Z,1.84
2018-02-22T07:54:02.555Z,2.32
2018-02-22T07:55:05.046Z,3.46
2018-02-22T07:56:07.544Z,3.74
2018-02-22T07:57:10.031Z,4.67
2018-02-22T07:58:12.519Z,5.72
2018-02-22T07:59:14.988Z,7.04
2018-02-22T08:00:17.470Z,8.06
2018-02-22T08:01:20.133Z,7.64
2018-02-22T08:02:22.618Z,6.52
2018-02-22T08:03:25.392Z,6.08
2018-02-22T08:04:27.881Z,6.46
2018-02-22T08:05:30.357Z,6.56
2018-02-22T08:06:32.867Z,7.28
2018-02-22T08:07:35.343Z,8.35
2018-02-22T08:08:38.774Z,8.14
2018-02-22T08:09:41.268Z,7.92
2018-02-22T08:10:43.736Z,7.64
2018-02-22T08:11:46.219Z,7.11
2018-02-22T08:12:48.691Z,6.77
2018-02-22T08:13:51.155Z,7.16
2018-02-22T08:14:53.797Z,8.10
2018-02-22T08:15:56.275Z,8.40
2018-02-22T08:16:58.769Z,9.51
2018-02-22T08:18:01.246Z,9.25
2018-02-22T08:19:03.727Z,8.81
2018-02-22T08:20:06.207Z,9.19
2018-02-22T08:21:08.702Z,8.72
2018-02-22T08:22:11.202Z,8.92
2018-02-22T08:23:13.671Z,8.98
2018-02-22T08:24:16.142Z,8.93
2018-02-22T08:25:18.614Z,9.27
2018-02-22T08:26:21.097Z,9.38
2018-02-22T08:27:23.583Z,9.12
2018-02-22T08:28:26.066Z,9.28
2018-02-22T08:29:28.564Z,9.47
2018-02-22T08:30:31.030Z,8.06
2018-02-22T08:31:33.509Z,8.26
2018-02-22T08:32:35.995Z,8.15
2018-02-22T08:33:38.515Z,7.77
2018-02-22T08:34:40.971Z,8.35
2018-02-22T08:35:43.436Z,8.69
2018-02-22T08:36:45.932Z,9.48
2018-02-22T08:37:48.436Z,8.95
2018-02-22T08:38:50.907Z,9.76
2018-02-22T08:39:53.371Z,9.68
2018-02-22T08:40:55.861Z,8.32
2018-02-22T08:41:58.363Z,9.53
2018-02-22T08:43:00.833Z,10.71
2018-02-22T08:44:03.311Z,9.71
2018-02-22T08:45:05.820Z,9.46
2018-02-22T08:46:08.306Z,8.71
2018-02-22T08:47:10.776Z,8.09
2018-02-22T08:48:13.263Z,8.28
2018-02-22T08:49:15.773Z,7.84
2018-02-22T08:50:18.251Z,8.34
2018-02-22T08:51:20.718Z,9.68
2018-02-22T08:52:23.188Z,9.90
2018-02-22T08:53:25.746Z,9.48
2018-02-22T08:54:28.232Z,9.39
2018-02-22T08:55:31.637Z,8.61
2018-02-22T08:56:34.107Z,8.46
2018-02-22T08:57:36.582Z,8.48
2018-02-22T08:58:39.199Z,8.93
2018-02-22T08:59:41.681Z,8.09
2018-02-22T09:00:44.147Z,8.49
2018-02-22T09:01:46.634Z,8.14
2018-02-22T09:02:49.116Z,8.34
2018-02-22T09:03:51.596Z,8.32
2018-02-22T09:04:54.092Z,9.69
2018-02-22T09:05:56.556Z,8.86
2018-02-22T09:06:59.045Z,9.12
2018-02-22T09:08:01.526Z,8.27
2018-02-22T09:09:04.010Z,8.97
2018-02-22T09:10:06.782Z,9.92
2018-02-22T09:11:09.372Z,10.20
2018-02-22T09:12:11.875Z,10.56
2018-02-22T09:13:15.492Z,10.32
2018-02-22T09:14:17.963Z,10.91
2018-02-22T09:15:20.449Z,11.39
2018-02-22T09:16:22.990Z,11.39
2018-02-22T09:17:25.500Z,10.23
2018-02-22T09:18:27.988Z,8.98
2018-02-22T09:19:30.476Z,8.34
2018-02-22T09:20:32.981Z,7.83
2018-02-22T09:21:35.450Z,8.63
2018-02-22T09:22:37.929Z,8.37
2018-02-22T09:23:40.407Z,7.74
2018-02-22T09:24:42.871Z,8.38
2018-02-22T09:25:45.353Z,8.81
2018-02-22T09:26:47.833Z,9.83
2018-02-22T09:27:50.348Z,10.06
2018-02-22T09:28:52.825Z,9.99
2018-02-22T09:29:55.322Z,9.96
2018-02-22T09:30:57.813Z,10.98
2018-02-22T09:32:00.317Z,10.60
2018-02-22T09:33:02.825Z,11.63
2018-02-22T09:34:05.303Z,11.67
2018-02-22T09:35:07.780Z,11.78
2018-02-22T09:36:10.267Z,11.89
2018-02-22T09:37:12.755Z,10.62
2018-02-22T09:38:15.237Z,10.58
2018-02-22T09:39:17.749Z,11.03
2018-02-22T09:40:20.234Z,11.66
2018-02-22T09:41:22.722Z,12.14
2018-02-22T09:42:25.204Z,12.19
2018-02-22T09:43:27.682Z,12.94
2018-02-22T09:44:30.160Z,12.93
2018-02-22T09:45:32.651Z,12.85
2018-02-22T09:46:35.169Z,12.19
2018-02-22T09:47:37.653Z,12.51
2018-02-22T09:48:40.124Z,13.08
2018-02-22T09:49:42.628Z,12.93
2018-02-22T09:50:45.117Z,12.87
2018-02-22T09:51:47.605Z,13.32
2018-02-22T09:52:50.089Z,12.94
2018-02-22T09:53:52.581Z,13.52
2018-02-22T09:54:55.069Z,11.95
2018-02-22T09:55:57.557Z,12.80
2018-02-22T09:57:00.046Z,13.70
2018-02-22T09:58:02.520Z,12.36
2018-02-22T09:59:04.992Z,13.38
2018-02-22T10:00:07.482Z,13.24
2018-02-22T10:01:09.980Z,12.57
2018-02-22T10:02:12.467Z,12.41
2018-02-22T10:03:14.935Z,13.07
2018-02-22T10:04:17.427Z,13.37
2018-02-22T10:05:19.924Z,13.61
2018-02-22T10:06:22.403Z,13.80
2018-02-22T10:07:24.891Z,12.89
2018-02-22T10:08:27.373Z,13.82
2018-02-22T10:09:29.862Z,14.14
2018-02-22T10:10:32.432Z,13.01
2018-02-22T10:11:34.911Z,12.44
2018-02-22T10:12:37.414Z,12.44
2018-02-22T10:13:39.905Z,12.26
2018-02-22T10:14:42.379Z,12.26
2018-02-22T10:15:44.883Z,12.00
2018-02-22T10:16:47.370Z,11.80
2018-02-22T10:17:49.860Z,11.84
2018-02-22T10:18:52.397Z,12.31
2018-02-22T10:19:54.867Z,12.18
2018-02-22T10:20:57.340Z,12.60
2018-02-22T10:21:59.830Z,12.62
2018-02-22T10:23:02.324Z,11.89
2018-02-22T10:24:04.798Z,12.20
2018-02-22T10:25:07.291Z,13.07
2018-02-22T10:26:09.797Z,13.57
2018-02-22T10:27:12.268Z,14.48
2018-02-22T10:28:14.761Z,14.09
2018-02-22T10:29:17.245Z,12.72
2018-02-22T10:30:19.715Z,12.92
2018-02-22T10:31:22.196Z,13.12
2018-02-22T10:32:24.686Z,13.68
2018-02-22T10:33:27.216Z,13.25
2018-02-22T10:34:29.722Z,13.52
2018-02-22T10:35:32.215Z,13.04
2018-02-22T10:36:34.740Z,13.60
2018-02-22T10:37:37.236Z,11.86
2018-02-22T10:38:39.761Z,11.20
2018-02-22T10:39:42.243Z,11.75
2018-02-22T10:40:44.760Z,11.83
2018-02-22T10:41:47.256Z,12.30
2018-02-22T10:42:49.731Z,12.13
2018-02-22T10:43:52.223Z,12.51
2018-02-22T10:44:54.708Z,12.95
2018-02-22T10:45:57.216Z,12.53
2018-02-22T10:46:59.712Z,12.73
2018-02-22T10:48:02.191Z,12.10
2018-02-22T10:49:04.714Z,12.08
2018-02-22T10:50:07.266Z,13.22
2018-02-22T10:51:09.695Z,12.66
2018-02-22T10:52:12.642Z,13.15
2018-02-22T10:53:15.129Z,12.86
2018-02-22T10:54:17.622Z,13.21
2018-02-22T10:55:20.181Z,13.41
2018-02-22T10:56:22.661Z,13.05
2018-02-22T10:57:25.127Z,13.11
2018-02-22T10:58:27.717Z,13.22
2018-02-22T10:59:30.208Z,14.14
2018-02-22T11:00:38.372Z,13.76
2018-02-22T11:01:46.364Z,14.42
2018-02-22T11:02:52.683Z,14.84
2018-02-22T11:03:55.164Z,14.56
2018-02-22T11:04:57.845Z,13.31
2018-02-22T11:06:00.332Z,12.59
2018-02-22T11:07:02.817Z,12.42
2018-02-22T11:08:05.313Z,12.61
2018-02-22T11:09:07.802Z,14.21
2018-02-22T11:10:10.272Z,14.94
2018-02-22T11:11:12.762Z,15.15
2018-02-22T11:12:15.253Z,14.29
2018-02-22T11:13:17.736Z,13.16
2018-02-22T11:14:20.218Z,13.83
2018-02-22T11:15:22.723Z,13.62
2018-02-22T11:16:25.217Z,15.05
2018-02-22T11:17:27.711Z,15.41
2018-02-22T11:18:30.225Z,16.53
2018-02-22T11:19:32.695Z,15.56
2018-02-22T11:20:35.171Z,15.68
2018-02-22T11:21:37.656Z,14.32
2018-02-22T11:22:40.152Z,13.96
2018-02-22T11:23:42.680Z,14.31
2018-02-22T11:24:45.159Z,15.57
2018-02-22T11:25:47.650Z,15.01
2018-02-22T11:26:50.127Z,14.79
2018-02-22T11:27:52.625Z,16.38
2018-02-22T11:28:55.125Z,16.26
2018-02-22T11:29:57.595Z,15.41
2018-02-22T11:31:00.089Z,15.38
2018-02-22T11:32:02.576Z,15.47
2018-02-22T11:33:05.052Z,15.11
2018-02-22T11:34:07.544Z,14.79
2018-02-22T11:35:10.034Z,14.62
2018-02-22T11:36:12.504Z,14.90
2018-02-22T11:37:14.971Z,14.39
2018-02-22T11:38:17.458Z,13.81
2018-02-22T11:39:19.970Z,14.46
2018-02-22T11:40:22.448Z,13.01
2018-02-22T11:41:24.938Z,12.66
2018-02-22T11:42:27.433Z,13.54
2018-02-22T11:43:29.925Z,13.45
2018-02-22T11:44:32.436Z,14.65
2018-02-22T11:45:34.929Z,15.54
2018-02-22T11:46:37.399Z,16.50
2018-02-22T11:47:39.882Z,16.01
2018-02-22T11:48:42.360Z,17.27
2018-02-22T11:49:44.861Z,16.07
2018-02-22T11:50:47.335Z,15.72
2018-02-22T11:51:49.908Z,16.13
2018-02-22T11:52:52.355Z,17.68
2018-02-22T11:53:54.833Z,18.01
2018-02-22T11:54:57.322Z,18.57
2018-02-22T11:55:59.798Z,18.71
2018-02-22T11:57:02.289Z,18.20
2018-02-22T11:58:04.767Z,18.00
2018-02-22T11:59:07.486Z,17.78
2018-02-22T12:00:09.998Z,18.09
2018-02-22T12:01:12.711Z,17.51
2018-02-22T12:02:15.214Z,16.04
2018-02-22T12:03:17.694Z,15.00
2018-02-22T12:04:20.167Z,14.71
2018-02-22T12:05:22.666Z,14.59
2018-02-22T12:06:25.141Z,14.39
2018-02-22T12:07:27.633Z,15.56
2018-02-22T12:08:30.111Z,15.91
2018-02-22T12:09:32.615Z,15.13
2018-02-22T12:10:35.111Z,14.86
2018-02-22T12:11:37.602Z,14.83
2018-02-22T12:12:40.089Z,14.34
2018-02-22T12:13:42.630Z,15.45
2018-02-22T12:14:45.095Z,16.97
2018-02-22T12:15:47.598Z,16.67
2018-02-22T12:16:50.109Z,16.60
2018-02-22T12:17:52.578Z,17.58
2018-02-22T12:18:55.070Z,17.05
2018-02-22T12:19:57.562Z,17.63
2018-02-22T12:21:00.075Z,17.59
2018-02-22T12:22:02.547Z,17.50
2018-02-22T12:23:05.033Z,17.96
2018-02-22T12:24:07.529Z,18.29
2018-02-22T12:25:10.057Z,17.88
2018-02-22T12:26:12.616Z,18.73
2018-02-22T12:27:15.116Z,18.42
2018-02-22T12:28:17.605Z,17.89
2018-02-22T12:29:20.076Z,17.08
2018-02-22T12:30:22.554Z,16.85
2018-02-22T12:31:25.168Z,17.69
2018-02-22T12:32:27.677Z,18.49
2018-02-22T12:33:30.148Z,17.12
2018-02-22T12:34:32.622Z,16.33
2018-02-22T12:35:35.107Z,17.75
2018-02-22T12:36:37.609Z,17.52
2018-02-22T12:37:40.089Z,17.53
2018-02-22T12:38:42.581Z,18.64
2018-02-22T12:39:45.073Z,18.14
2018-02-22T12:40:47.561Z,17.48
2018-02-22T12:41:50.196Z,16.90
2018-02-22T12:42:52.702Z,16.38
2018-02-22T12:43:55.188Z,17.30
2018-02-22T12:44:57.670Z,18.41
2018-02-22T12:46:00.350Z,19.26
2018-02-22T12:47:02.914Z,20.33
2018-02-22T12:48:05.461Z,20.26
2018-02-22T12:49:07.945Z,20.36
2018-02-22T12:50:10.447Z,19.92
2018-02-22T12:51:13.444Z,20.17
2018-02-22T12:52:15.958Z,19.65
2018-02-22T12:53:18.477Z,20.72
2018-02-22T12:54:21.027Z,20.46
2018-02-22T12:55:23.642Z,20.25
2018-02-22T12:56:26.201Z,20.67
2018-02-22T12:57:28.729Z,19.92
2018-02-22T12:58:31.344Z,21.29
2018-02-22T12:59:33.852Z,22.20
2018-02-22T13:00:36.347Z,22.25
2018-02-22T13:01:38.834Z,21.93
2018-02-22T13:02:41.866Z,21.27
2018-02-22T13:03:44.354Z,20.29
2018-02-22T13:04:46.837Z,19.78
2018-02-22T13:05:49.320Z,17.37
2018-02-22T13:06:51.807Z,17.31
2018-02-22T13:07:54.338Z,17.95
2018-02-22T13:08:56.864Z,17.52
2018-02-22T13:09:59.342Z,18.24
2018-02-22T13:11:01.889Z,18.38
2018-02-22T13:12:04.383Z,17.99
2018-02-22T13:13:06.883Z,18.24
2018-02-22T13:14:09.355Z,18.48
2018-02-22T13:15:11.836Z,18.28
2018-02-22T13:16:14.315Z,19.15
2018-02-22T13:17:16.783Z,20.23
2018-02-22T13:18:19.290Z,20.92
2018-02-22T13:19:21.779Z,21.70
2018-02-22T13:20:24.247Z,19.81
2018-02-22T13:21:26.727Z,20.25
2018-02-22T13:22:29.206Z,21.37
2018-02-22T13:23:31.714Z,22.06
2018-02-22T13:24:34.189Z,18.98
2018-02-22T13:25:36.670Z,17.85
2018-02-22T13:26:39.183Z,17.59
2018-02-22T13:27:41.665Z,18.38
2018-02-22T13:28:44.151Z,17.09